Lomira, Wisconsin
Current Conditions -  °F | °C
As of 1:01 AM on Sunday 23 Nov 2014 (Local Time) from KFLD Reporting Station
Broken Clouds Broken Clouds  
Wind Chill: 44°   Ceiling: 2700
Heat Index: 49°   Visibility: 10mi
Dew Point: 45°   Wind: 14mph
Humidity: 86%   Direction: 190°S
Pressure: 29.71"   Gusts: NA
Location:  43.59°N, 88.44°W
Report Text: KFLD 230701Z AUTO 19012KT 10SM FEW011 BKN027 BKN046 09/07 A2971 RMK AO2 T00940072
Loading
Personal Weather Stations






























Interactive Weather Map New forecast layout! Learn more

10-Day Weather Forecast

Advertisements
Track Severe Weather on mobile